createdAt,value
2023-03-19T00:00:27.998Z,101190.50
2023-03-19T00:02:55.362Z,101188.34
2023-03-19T00:05:22.623Z,101186.69
2023-03-19T00:07:49.567Z,101180.75
2023-03-19T00:10:16.585Z,101182.06
2023-03-19T00:12:43.517Z,101181.63
2023-03-19T00:15:14.332Z,101177.19
2023-03-19T00:17:44.456Z,101179.09
2023-03-19T00:20:12.249Z,101175.16
2023-03-19T00:22:40.073Z,101171.00
2023-03-19T00:25:10.379Z,101172.53
2023-03-19T00:27:38.203Z,101171.84
2023-03-19T00:30:06.744Z,101172.72
2023-03-19T00:32:34.349Z,101172.56
2023-03-19T00:35:01.510Z,101176.84
2023-03-19T00:37:29.421Z,101166.63
2023-03-19T00:39:56.477Z,101162.66
2023-03-19T00:42:23.621Z,101165.31
2023-03-19T00:44:50.742Z,101160.59
2023-03-19T00:47:17.795Z,101163.66
2023-03-19T00:49:44.852Z,101149.63
2023-03-19T00:52:11.857Z,101150.25
2023-03-19T00:54:40.090Z,101149.66
2023-03-19T00:57:08.070Z,101139.44
2023-03-19T00:59:35.102Z,101139.34
2023-03-19T01:02:03.003Z,101141.13
2023-03-19T01:04:30.011Z,101138.59
2023-03-19T01:06:58.417Z,101135.06
2023-03-19T01:09:26.702Z,101130.34
2023-03-19T01:11:56.968Z,101131.25
2023-03-19T01:14:23.960Z,101122.94
2023-03-19T01:16:51.188Z,101125.19
2023-03-19T01:19:18.213Z,101126.16
2023-03-19T01:21:46.626Z,101126.53
2023-03-19T01:24:17.847Z,101122.84
2023-03-19T01:26:47.479Z,101117.63
2023-03-19T01:29:30.472Z,101117.25
2023-03-19T01:32:00.734Z,101111.19
2023-03-19T01:34:53.980Z,101115.03
2023-03-19T01:37:21.299Z,101115.88
2023-03-19T01:39:48.776Z,101117.16
2023-03-19T01:42:15.785Z,101117.19
2023-03-19T01:45:03.376Z,101123.75
2023-03-19T01:47:41.080Z,101113.78
2023-03-19T01:50:25.045Z,101115.69
2023-03-19T01:53:13.460Z,101110.50
2023-03-19T01:55:49.981Z,101118.47
2023-03-19T01:58:33.075Z,101110.25
2023-03-19T02:01:20.703Z,101112.16
2023-03-19T02:03:51.578Z,101110.38
2023-03-19T02:06:24.182Z,101112.38
2023-03-19T02:08:51.574Z,101104.00
2023-03-19T02:11:18.588Z,101110.44
2023-03-19T02:13:46.230Z,101103.44
2023-03-19T02:16:13.552Z,101105.22
2023-03-19T02:18:41.681Z,101092.31
2023-03-19T02:21:13.724Z,101096.88
2023-03-19T02:24:02.452Z,101095.53
2023-03-19T02:26:44.440Z,101093.63
2023-03-19T02:29:11.468Z,101092.88
2023-03-19T02:31:38.643Z,101096.41
2023-03-19T02:34:07.727Z,101081.22
2023-03-19T02:36:42.442Z,101084.41
2023-03-19T02:39:14.194Z,101095.16
2023-03-19T02:41:41.606Z,101083.94
2023-03-19T02:44:08.725Z,101084.94
2023-03-19T02:46:35.816Z,101082.31
2023-03-19T02:49:02.840Z,101087.59
2023-03-19T02:51:29.989Z,101085.94
2023-03-19T02:53:56.973Z,101088.38
2023-03-19T02:56:23.818Z,101085.84
2023-03-19T02:58:50.817Z,101084.03
2023-03-19T03:01:19.223Z,101083.00
2023-03-19T03:03:46.617Z,101079.69
2023-03-19T03:06:14.261Z,101073.34
2023-03-19T03:08:41.372Z,101080.22
2023-03-19T03:11:08.475Z,101084.69
2023-03-19T03:13:35.949Z,101083.94
2023-03-19T03:16:03.120Z,101073.56
2023-03-19T03:18:30.252Z,101077.84
2023-03-19T03:20:57.393Z,101081.50
2023-03-19T03:23:24.396Z,101078.09
2023-03-19T03:25:52.168Z,101069.75
2023-03-19T03:28:19.274Z,101075.06
2023-03-19T03:30:47.139Z,101070.00
2023-03-19T03:33:14.175Z,101067.63
2023-03-19T03:35:41.176Z,101063.59
2023-03-19T03:38:08.234Z,101061.56
2023-03-19T03:40:36.819Z,101061.31
2023-03-19T03:43:03.939Z,101066.63
2023-03-19T03:45:33.506Z,101055.72
2023-03-19T03:48:00.848Z,101057.59
2023-03-19T03:50:27.744Z,101056.47
2023-03-19T03:52:57.742Z,101057.88
2023-03-19T03:55:24.727Z,101052.81
2023-03-19T03:57:52.157Z,101048.25
2023-03-19T04:00:19.635Z,101047.75
2023-03-19T04:02:47.107Z,101052.06
2023-03-19T04:05:16.465Z,101054.06
2023-03-19T04:07:44.019Z,101056.69
2023-03-19T04:10:11.845Z,101049.34
2023-03-19T04:12:40.022Z,101058.03
2023-03-19T04:15:07.973Z,101051.75
2023-03-19T04:17:36.911Z,101045.97
2023-03-19T04:20:04.745Z,101046.44
2023-03-19T04:22:31.799Z,101043.06
2023-03-19T04:24:59.736Z,101040.47
2023-03-19T04:27:27.683Z,101037.41
2023-03-19T04:29:54.875Z,101037.09
2023-03-19T04:32:21.911Z,101031.41
2023-03-19T04:34:49.233Z,101036.59
2023-03-19T04:37:16.186Z,101036.66
2023-03-19T04:39:49.239Z,101031.72
2023-03-19T04:42:16.271Z,101039.00
2023-03-19T04:45:07.006Z,101038.63
2023-03-19T04:47:34.492Z,101040.03
2023-03-19T04:50:01.582Z,101028.88
2023-03-19T04:52:31.236Z,101029.06
2023-03-19T04:54:58.186Z,101024.75
2023-03-19T04:57:25.184Z,101018.78
2023-03-19T04:59:54.375Z,101019.16
2023-03-19T05:02:22.515Z,101015.03
2023-03-19T05:04:50.403Z,101015.31
2023-03-19T05:07:17.488Z,101017.09
2023-03-19T05:09:46.345Z,101008.56
2023-03-19T05:12:14.675Z,101016.84
2023-03-19T05:14:46.560Z,101018.41
2023-03-19T05:17:30.054Z,101019.09
2023-03-19T05:20:12.745Z,101014.91
2023-03-19T05:22:46.598Z,101014.59
2023-03-19T05:25:14.982Z,101011.84
2023-03-19T05:27:42.721Z,101015.28
2023-03-19T05:30:18.400Z,101012.84
2023-03-19T05:33:00.947Z,100998.78
2023-03-19T05:35:36.903Z,100999.16
2023-03-19T05:38:09.553Z,100994.50
2023-03-19T05:40:36.998Z,101003.38
2023-03-19T05:43:18.111Z,100996.59
2023-03-19T05:45:50.885Z,100996.50
2023-03-19T05:48:21.252Z,100998.97
2023-03-19T05:50:48.474Z,100987.56
2023-03-19T05:53:20.861Z,100992.88
2023-03-19T05:56:05.066Z,100986.69
2023-03-19T05:58:39.712Z,100990.91
2023-03-19T06:01:07.251Z,100987.09
2023-03-19T06:03:34.265Z,100983.97
2023-03-19T06:06:05.888Z,100980.34
2023-03-19T06:08:40.932Z,100981.91
2023-03-19T06:11:21.407Z,100982.91
2023-03-19T06:13:57.195Z,100968.78
2023-03-19T06:16:24.322Z,100974.59
2023-03-19T06:18:52.821Z,100970.94
2023-03-19T06:21:20.007Z,100961.91
2023-03-19T06:23:46.886Z,100966.78
2023-03-19T06:26:18.330Z,100959.78
2023-03-19T06:28:54.552Z,100952.03
2023-03-19T06:31:22.044Z,100949.72
2023-03-19T06:33:55.542Z,100949.59
2023-03-19T06:36:26.226Z,100954.13
2023-03-19T06:38:53.565Z,100954.06
2023-03-19T06:41:21.412Z,100954.50
2023-03-19T06:43:49.391Z,100956.72
2023-03-19T06:46:16.446Z,100949.06
2023-03-19T06:48:43.503Z,100954.25
2023-03-19T06:51:10.734Z,100946.03
2023-03-19T06:53:37.635Z,100946.72
2023-03-19T06:56:04.729Z,100949.34
2023-03-19T06:58:31.985Z,100948.78
2023-03-19T07:00:59.994Z,100941.00
2023-03-19T07:03:26.973Z,100942.75
2023-03-19T07:05:54.023Z,100935.59
2023-03-19T07:08:21.040Z,100930.41
2023-03-19T07:10:48.084Z,100932.25
2023-03-19T07:13:15.172Z,100930.34
2023-03-19T07:15:42.177Z,100936.59
2023-03-19T07:18:09.172Z,100931.88
2023-03-19T07:20:36.602Z,100935.16
2023-03-19T07:23:03.760Z,100937.06
2023-03-19T07:25:30.775Z,100931.97
2023-03-19T07:27:57.843Z,100932.69
2023-03-19T07:30:24.864Z,100922.47
2023-03-19T07:32:51.781Z,100923.75
2023-03-19T07:35:18.763Z,100926.44
2023-03-19T07:37:45.966Z,100924.44
2023-03-19T07:40:13.147Z,100923.56
2023-03-19T07:42:40.151Z,100916.38
2023-03-19T07:45:07.678Z,100918.28
2023-03-19T07:47:34.633Z,100918.03
2023-03-19T07:50:01.798Z,100910.66
2023-03-19T07:52:30.014Z,100901.63
2023-03-19T07:54:57.221Z,100896.75
2023-03-19T07:57:25.832Z,100897.56
2023-03-19T07:59:52.862Z,100894.31
2023-03-19T08:02:22.711Z,100898.84
2023-03-19T08:04:50.111Z,100891.50
2023-03-19T08:07:17.188Z,100896.28
2023-03-19T08:09:44.314Z,100892.13
2023-03-19T08:12:11.573Z,100882.63
2023-03-19T08:14:38.567Z,100876.56
2023-03-19T08:17:05.794Z,100883.81
2023-03-19T08:19:32.794Z,100875.69
2023-03-19T08:21:59.834Z,100881.91
2023-03-19T08:24:26.730Z,100881.41
2023-03-19T08:26:53.707Z,100873.59
2023-03-19T08:29:21.016Z,100875.81
2023-03-19T08:31:47.940Z,100878.69
2023-03-19T08:34:15.383Z,100870.13
2023-03-19T08:36:42.380Z,100872.84
2023-03-19T08:39:09.533Z,100865.81
2023-03-19T08:41:36.473Z,100862.81
2023-03-19T08:44:03.713Z,100869.53
2023-03-19T08:46:30.830Z,100867.78
2023-03-19T08:48:57.905Z,100865.47
2023-03-19T08:51:26.109Z,100862.63
2023-03-19T08:53:53.394Z,100861.16
2023-03-19T08:56:20.460Z,100861.69
2023-03-19T08:58:47.425Z,100857.50
2023-03-19T09:01:14.691Z,100856.06
2023-03-19T09:03:42.739Z,100852.53
2023-03-19T09:06:10.546Z,100855.41
2023-03-19T09:08:37.933Z,100847.63
2023-03-19T09:11:05.529Z,100840.91
2023-03-19T09:13:32.567Z,100841.69
2023-03-19T09:15:59.495Z,100833.38
2023-03-19T09:18:26.613Z,100835.56
2023-03-19T09:20:54.139Z,100832.88
2023-03-19T09:23:21.725Z,100826.81
2023-03-19T09:25:48.908Z,100823.78
2023-03-19T09:28:16.197Z,100821.31
2023-03-19T09:30:43.451Z,100819.81
2023-03-19T09:33:10.670Z,100820.94
2023-03-19T09:35:39.760Z,100819.09
2023-03-19T09:38:07.024Z,100813.50
2023-03-19T09:40:39.320Z,100809.06
2023-03-19T09:43:43.727Z,100806.03
2023-03-19T09:46:25.445Z,100801.72
2023-03-19T09:48:59.982Z,100802.53
2023-03-19T09:51:43.751Z,100792.69
2023-03-19T09:54:23.219Z,100787.50
2023-03-19T09:56:50.248Z,100792.38
2023-03-19T09:59:17.383Z,100782.84
2023-03-19T10:01:47.605Z,100780.72
2023-03-19T10:04:32.838Z,100778.59
2023-03-19T10:07:26.951Z,100775.97
2023-03-19T10:09:56.872Z,100776.53
2023-03-19T10:12:42.532Z,100774.91
2023-03-19T10:15:41.794Z,100775.97
2023-03-19T10:18:11.981Z,100764.81
2023-03-19T10:20:48.007Z,100755.47
2023-03-19T10:23:55.524Z,100751.97
2023-03-19T10:26:26.586Z,100758.00
2023-03-19T10:29:10.698Z,100762.00
2023-03-19T10:31:40.865Z,100757.63
2023-03-19T10:34:10.813Z,100749.09
2023-03-19T10:36:37.807Z,100756.13
2023-03-19T10:39:06.978Z,100756.25
2023-03-19T10:41:33.825Z,100751.81
2023-03-19T10:44:03.395Z,100746.66
2023-03-19T10:46:39.906Z,100744.84
2023-03-19T10:49:13.502Z,100737.94
2023-03-19T10:51:43.281Z,100739.91
2023-03-19T10:54:22.674Z,100736.81
2023-03-19T10:56:50.039Z,100739.03
2023-03-19T10:59:27.112Z,100736.16
2023-03-19T11:02:03.660Z,100729.41
2023-03-19T11:04:32.340Z,100728.56
2023-03-19T11:07:03.863Z,100731.25
2023-03-19T11:09:41.675Z,100730.34
2023-03-19T11:12:23.187Z,100724.25
2023-03-19T11:14:54.004Z,100718.25
2023-03-19T11:17:28.043Z,100716.19
2023-03-19T11:19:56.832Z,100713.66
2023-03-19T11:22:34.193Z,100710.22
2023-03-19T11:25:20.526Z,100709.25
2023-03-19T11:28:09.768Z,100709.13
2023-03-19T11:30:45.390Z,100705.88
2023-03-19T11:33:38.503Z,100704.84
2023-03-19T11:36:20.699Z,100703.47
2023-03-19T11:39:17.144Z,100702.91
2023-03-19T11:42:05.800Z,100699.78
2023-03-19T11:44:56.900Z,100691.41
2023-03-19T11:47:48.915Z,100688.81
2023-03-19T11:50:22.362Z,100685.53
2023-03-19T11:53:08.164Z,100670.75
2023-03-19T11:56:02.342Z,100670.03
2023-03-19T11:58:58.626Z,100673.63
2023-03-19T12:01:49.197Z,100671.47
2023-03-19T12:04:43.171Z,100661.72
2023-03-19T12:07:15.983Z,100656.69
2023-03-19T12:09:57.649Z,100661.19
2023-03-19T12:12:34.820Z,100661.56
2023-03-19T12:15:19.840Z,100650.06
2023-03-19T12:18:08.583Z,100655.81
2023-03-19T12:20:58.340Z,100648.81
2023-03-19T12:23:41.097Z,100649.75
2023-03-19T12:26:12.222Z,100644.69
2023-03-19T12:28:51.801Z,100640.66
2023-03-19T12:31:46.807Z,100640.31
2023-03-19T12:34:26.018Z,100636.63
2023-03-19T12:37:21.496Z,100630.63
2023-03-19T12:40:20.684Z,100629.22
2023-03-19T12:42:47.664Z,100625.22
2023-03-19T12:45:33.232Z,100619.75
2023-03-19T12:48:11.304Z,100613.34
2023-03-19T12:50:39.940Z,100611.31
2023-03-19T12:53:11.460Z,100610.28
2023-03-19T12:55:45.116Z,100605.44
2023-03-19T12:58:31.314Z,100606.63
2023-03-19T13:01:15.787Z,100604.16
2023-03-19T13:04:04.360Z,100602.41
2023-03-19T13:06:34.726Z,100590.06
2023-03-19T13:09:24.401Z,100590.91
2023-03-19T13:11:51.296Z,100585.91
2023-03-19T13:14:24.344Z,100579.78
2023-03-19T13:17:12.522Z,100585.00
2023-03-19T13:19:47.497Z,100576.63
2023-03-19T13:22:19.894Z,100574.81
2023-03-19T13:24:46.882Z,100570.31
2023-03-19T13:27:24.377Z,100570.03
2023-03-19T13:30:09.911Z,100561.56
2023-03-19T13:32:49.871Z,100563.38
2023-03-19T13:35:37.472Z,100557.78
2023-03-19T13:38:26.259Z,100556.78
2023-03-19T13:40:55.621Z,100549.50
2023-03-19T13:43:29.565Z,100549.31
2023-03-19T13:46:42.222Z,100548.41
2023-03-19T13:49:36.410Z,100538.94
2023-03-19T13:52:15.696Z,100541.13
2023-03-19T13:54:46.053Z,100530.31
2023-03-19T13:57:18.302Z,100527.34
2023-03-19T13:59:47.378Z,100528.38
2023-03-19T14:02:32.864Z,100522.78
2023-03-19T14:05:07.424Z,100515.41
2023-03-19T14:07:38.713Z,100511.63
2023-03-19T14:10:28.266Z,100517.28
2023-03-19T14:13:09.049Z,100518.38
2023-03-19T14:15:38.420Z,100506.88
2023-03-19T14:18:13.865Z,100510.56
2023-03-19T14:20:53.973Z,100510.22
2023-03-19T14:23:37.665Z,100509.91
2023-03-19T14:26:26.227Z,100496.59
2023-03-19T14:29:02.717Z,100495.47
2023-03-19T14:31:53.607Z,100500.34
2023-03-19T14:34:25.868Z,100491.44
2023-03-19T14:37:04.546Z,100488.28
2023-03-19T14:39:33.323Z,100503.34
2023-03-19T14:42:19.861Z,100488.28
2023-03-19T14:45:08.579Z,100496.25
2023-03-19T14:47:47.571Z,100499.69
2023-03-19T14:50:42.327Z,100500.38
2023-03-19T14:53:38.299Z,100500.25
2023-03-19T14:56:30.878Z,100492.38
2023-03-19T14:58:58.348Z,100488.78
2023-03-19T15:01:28.690Z,100486.84
2023-03-19T15:04:09.364Z,100488.34
2023-03-19T15:06:40.935Z,100494.75
2023-03-19T15:09:21.042Z,100489.00
2023-03-19T15:12:06.448Z,100489.53
2023-03-19T15:14:39.469Z,100492.91
2023-03-19T15:17:20.776Z,100486.81
2023-03-19T15:19:47.768Z,100489.00
2023-03-19T15:22:16.856Z,100492.16
2023-03-19T15:24:43.853Z,100490.81
2023-03-19T15:27:21.235Z,100495.38
2023-03-19T15:29:50.377Z,100497.41
2023-03-19T15:33:04.425Z,100490.03
2023-03-19T15:35:36.189Z,100493.25
2023-03-19T15:38:07.785Z,100494.00
2023-03-19T15:40:34.927Z,100500.66
2023-03-19T15:43:05.027Z,100495.00
2023-03-19T15:45:34.138Z,100501.59
2023-03-19T15:48:07.751Z,100499.53
2023-03-19T15:50:36.831Z,100504.06
2023-03-19T15:53:07.217Z,100495.38
2023-03-19T15:55:36.371Z,100504.75
2023-03-19T15:58:07.134Z,100499.38
2023-03-19T16:00:40.230Z,100497.34
2023-03-19T16:03:07.748Z,100502.91
2023-03-19T16:05:34.941Z,100501.66
2023-03-19T16:08:08.695Z,100503.84
2023-03-19T16:10:42.674Z,100507.56
2023-03-19T16:13:43.717Z,100508.28
2023-03-19T16:16:10.681Z,100509.06
2023-03-19T16:18:50.586Z,100521.97
2023-03-19T16:21:27.569Z,100517.50
2023-03-19T16:23:59.062Z,100512.09
2023-03-19T16:26:29.580Z,100510.03
2023-03-19T16:29:22.702Z,100504.44
2023-03-19T16:32:02.869Z,100503.78
2023-03-19T16:34:46.578Z,100506.00
2023-03-19T16:37:38.514Z,100502.34
2023-03-19T16:40:17.531Z,100498.75
2023-03-19T16:42:56.592Z,100507.28
2023-03-19T16:45:27.340Z,100506.56
2023-03-19T16:47:58.654Z,100498.59
2023-03-19T16:50:29.784Z,100499.78
2023-03-19T16:52:56.768Z,100495.69
2023-03-19T16:55:26.096Z,100494.47
2023-03-19T16:57:56.772Z,100504.25
2023-03-19T17:00:24.701Z,100507.34
2023-03-19T17:02:58.122Z,100504.69
2023-03-19T17:05:26.238Z,100498.28
2023-03-19T17:07:55.809Z,100501.22
2023-03-19T17:10:27.464Z,100504.28
2023-03-19T17:12:54.805Z,100500.59
2023-03-19T17:15:27.288Z,100501.50
2023-03-19T17:17:54.522Z,100505.44
2023-03-19T17:20:34.321Z,100499.31
2023-03-19T17:23:01.625Z,100494.91
2023-03-19T17:25:29.082Z,100490.72
2023-03-19T17:27:56.043Z,100501.56
2023-03-19T17:30:22.995Z,100490.84
2023-03-19T17:32:51.115Z,100490.94
2023-03-19T17:35:19.458Z,100487.75
2023-03-19T17:37:46.664Z,100485.31
2023-03-19T17:40:25.137Z,100484.59
2023-03-19T17:42:52.512Z,100481.25
2023-03-19T17:45:27.848Z,100491.88
2023-03-19T17:47:56.786Z,100482.09
2023-03-19T17:50:28.770Z,100483.25
2023-03-19T17:52:56.067Z,100482.53
2023-03-19T17:55:24.656Z,100479.38
2023-03-19T17:57:51.637Z,100476.41
2023-03-19T18:00:22.905Z,100478.56
2023-03-19T18:02:51.385Z,100479.72
2023-03-19T18:05:23.516Z,100469.75
2023-03-19T18:07:51.336Z,100466.81
2023-03-19T18:10:20.080Z,100470.41
2023-03-19T18:12:47.641Z,100470.00
2023-03-19T18:15:14.811Z,100458.75
2023-03-19T18:17:42.760Z,100458.56
2023-03-19T18:20:15.743Z,100458.13
2023-03-19T18:22:42.748Z,100452.88
2023-03-19T18:25:17.412Z,100453.75
2023-03-19T18:27:44.491Z,100448.22
2023-03-19T18:30:16.567Z,100439.97
2023-03-19T18:32:45.820Z,100443.91
2023-03-19T18:35:21.366Z,100447.25
2023-03-19T18:37:49.833Z,100447.19
2023-03-19T18:40:22.582Z,100449.78
2023-03-19T18:42:49.730Z,100445.31
2023-03-19T18:45:17.444Z,100440.22
2023-03-19T18:47:45.119Z,100441.66
2023-03-19T18:50:20.328Z,100440.06
2023-03-19T18:52:48.870Z,100445.94
2023-03-19T18:55:15.928Z,100440.69
2023-03-19T18:57:52.855Z,100436.81
2023-03-19T19:00:26.320Z,100432.97
2023-03-19T19:02:53.567Z,100431.22
2023-03-19T19:05:27.724Z,100423.47
2023-03-19T19:07:56.621Z,100427.34
2023-03-19T19:10:24.484Z,100425.47
2023-03-19T19:12:52.588Z,100426.38
2023-03-19T19:15:29.992Z,100424.00
2023-03-19T19:17:57.798Z,100421.47
2023-03-19T19:20:26.594Z,100421.91
2023-03-19T19:22:53.704Z,100428.13
2023-03-19T19:25:29.724Z,100424.97
2023-03-19T19:28:11.484Z,100427.31
2023-03-19T19:30:39.097Z,100430.94
2023-03-19T19:33:15.866Z,100431.28
2023-03-19T19:35:42.948Z,100425.41
2023-03-19T19:38:09.879Z,100429.44
2023-03-19T19:40:37.134Z,100426.63
2023-03-19T19:43:04.325Z,100425.84
2023-03-19T19:45:37.758Z,100429.44
2023-03-19T19:48:07.123Z,100429.16
2023-03-19T19:50:34.374Z,100430.16
2023-03-19T19:53:01.594Z,100434.69
2023-03-19T19:55:28.584Z,100433.13
2023-03-19T19:57:56.115Z,100430.69
2023-03-19T20:00:28.622Z,100429.06
2023-03-19T20:02:56.332Z,100421.97
2023-03-19T20:05:24.988Z,100421.44
2023-03-19T20:07:52.782Z,100426.53
2023-03-19T20:10:20.603Z,100414.53
2023-03-19T20:12:49.275Z,100428.66
2023-03-19T20:15:21.741Z,100426.97
2023-03-19T20:17:48.826Z,100422.66
2023-03-19T20:20:17.838Z,100419.44
2023-03-19T20:22:45.782Z,100419.88
2023-03-19T20:25:13.306Z,100413.56
2023-03-19T20:27:40.473Z,100402.84
2023-03-19T20:30:09.102Z,100413.25
2023-03-19T20:32:37.635Z,100409.06
2023-03-19T20:35:05.473Z,100410.84
2023-03-19T20:37:32.366Z,100404.25
2023-03-19T20:39:59.436Z,100410.03
2023-03-19T20:42:26.514Z,100411.69
2023-03-19T20:44:55.932Z,100411.25
2023-03-19T20:47:22.986Z,100413.34
2023-03-19T20:49:50.189Z,100420.59
2023-03-19T20:52:17.143Z,100422.13
2023-03-19T20:54:44.761Z,100416.28
2023-03-19T20:57:16.718Z,100408.59
2023-03-19T20:59:45.899Z,100408.44
2023-03-19T21:02:17.250Z,100407.66
2023-03-19T21:04:47.736Z,100408.06
2023-03-19T21:07:33.616Z,100401.94
2023-03-19T21:10:01.333Z,100394.69
2023-03-19T21:12:29.892Z,100393.66
2023-03-19T21:15:00.373Z,100399.41
2023-03-19T21:17:28.711Z,100393.19
2023-03-19T21:19:56.763Z,100388.22
2023-03-19T21:22:28.592Z,100390.81
2023-03-19T21:25:06.898Z,100396.00
2023-03-19T21:27:34.561Z,100388.72
2023-03-19T21:30:01.500Z,100395.53
2023-03-19T21:32:29.419Z,100395.53
2023-03-19T21:34:56.419Z,100391.00
2023-03-19T21:37:23.449Z,100393.78
2023-03-19T21:39:50.805Z,100396.22
2023-03-19T21:42:19.248Z,100395.25
2023-03-19T21:44:46.658Z,100396.63
2023-03-19T21:47:14.076Z,100400.91
2023-03-19T21:49:41.328Z,100398.91
2023-03-19T21:52:12.677Z,100399.34
2023-03-19T21:54:40.528Z,100401.00
2023-03-19T21:57:13.541Z,100402.50
2023-03-19T21:59:40.891Z,100395.84
2023-03-19T22:02:36.792Z,100400.13
2023-03-19T22:05:16.690Z,100402.09
2023-03-19T22:07:43.860Z,100398.78
2023-03-19T22:10:10.977Z,100398.19
2023-03-19T22:12:39.590Z,100385.72
2023-03-19T22:15:07.777Z,100388.44
2023-03-19T22:17:35.001Z,100381.59
2023-03-19T22:20:01.997Z,100378.63
2023-03-19T22:22:29.729Z,100376.09
2023-03-19T22:24:59.393Z,100377.16
2023-03-19T22:27:26.402Z,100375.91
2023-03-19T22:29:53.337Z,100374.72
2023-03-19T22:32:20.506Z,100370.59
2023-03-19T22:34:47.633Z,100371.34
2023-03-19T22:37:30.644Z,100369.44
2023-03-19T22:39:57.656Z,100374.44
2023-03-19T22:42:24.878Z,100379.09
2023-03-19T22:44:51.902Z,100375.97
2023-03-19T22:47:20.213Z,100378.03
2023-03-19T22:49:47.300Z,100376.84
2023-03-19T22:52:14.294Z,100364.78
2023-03-19T22:54:41.788Z,100367.13
2023-03-19T22:57:11.683Z,100362.81
2023-03-19T22:59:38.596Z,100361.94
2023-03-19T23:02:05.672Z,100360.88
2023-03-19T23:04:33.036Z,100360.91
2023-03-19T23:07:00.510Z,100366.09
2023-03-19T23:09:32.288Z,100366.44
2023-03-19T23:11:59.707Z,100358.41
2023-03-19T23:14:30.852Z,100363.88
2023-03-19T23:17:03.606Z,100350.13
2023-03-19T23:19:35.045Z,100348.81
2023-03-19T23:22:04.981Z,100349.63
2023-03-19T23:24:32.432Z,100342.75
2023-03-19T23:27:00.254Z,100341.19
2023-03-19T23:29:32.616Z,100344.09
2023-03-19T23:31:59.815Z,100345.31
2023-03-19T23:34:26.986Z,100351.59
2023-03-19T23:36:54.001Z,100344.22
2023-03-19T23:39:21.250Z,100336.72
2023-03-19T23:41:49.889Z,100332.53
2023-03-19T23:44:18.408Z,100328.38
2023-03-19T23:46:46.108Z,100327.50
2023-03-19T23:49:14.125Z,100327.41
2023-03-19T23:51:42.105Z,100321.09
2023-03-19T23:54:38.820Z,100324.06
2023-03-19T23:57:07.152Z,100313.78
2023-03-19T23:59:38.425Z,100317.41
